Time;durP1;ratioP1;P1;durP2;ratioP2;P2;SDS_P1;SDS_P2;PMS_P1;PMS_P2;Temp;Humidity;BMP_temperature;BMP_pressure;BME280_temperature;BME280_humidity;BME280_pressure;Samples;Min_cycle;Max_cycle;Signal;HPM_P1;HPM_P2
2022/01/25 00:08:28;;;;;;;22.27;8.90;;;5.30;1.00;;;;;;10288170;28;85202;-54
2022/01/25 00:34:50;;;;;;;26.65;10.23;;;5.40;1.00;;;;;;10256459;28;84483;-53
2022/01/25 00:39:51;;;;;;;24.77;9.50;;;5.30;1.00;;;;;;10294043;28;84883;-56
2022/01/25 00:44:53;;;;;;;22.10;9.68;;;5.30;7.10;;;;;;10294495;28;85128;-55
2022/01/25 00:49:54;;;;;;;25.77;9.75;;;5.40;1.00;;;;;;10293647;28;85103;-52
2022/01/25 00:54:58;;;;;;;21.17;9.27;;;5.40;1.00;;;;;;10293310;28;84581;-53
2022/01/25 00:59:59;;;;;;;23.17;9.45;;;5.30;7.00;;;;;;10275271;28;87036;-55
2022/01/25 01:05:00;;;;;;;26.55;10.45;;;5.30;8.60;;;;;;10292598;28;84095;-51
2022/01/25 01:10:01;;;;;;;24.83;10.05;;;5.30;1.00;;;;;;10291180;28;84999;-53
2022/01/25 01:15:18;;;;;;;29.60;9.55;;;5.30;5.20;;;;;;10292284;28;86373;-51
2022/01/25 01:31:25;;;;;;;25.15;10.93;;;5.00;15.30;;;;;;10218019;28;84268;-55
2022/01/25 01:42:00;;;;;;;25.48;9.88;;;5.20;45.30;;;;;;10292506;28;84110;-53
2022/01/25 01:52:01;;;;;;;28.20;9.00;;;5.10;3.80;;;;;;10292170;28;84285;-54
2022/01/25 01:57:01;;;;;;;23.67;10.35;;;5.10;25.10;;;;;;10289567;28;84936;-53
2022/01/25 02:02:03;;;;;;;28.02;9.43;;;5.10;3.70;;;;;;10290084;28;87028;-55
2022/01/25 02:07:04;;;;;;;24.75;10.43;;;5.20;1.00;;;;;;10290945;28;84174;-54
2022/01/25 02:12:06;;;;;;;25.75;10.18;;;5.10;1.00;;;;;;10289925;28;85752;-53
2022/01/25 02:17:57;;;;;;;22.65;9.35;;;5.00;6.70;;;;;;10291000;28;84855;-54
2022/01/25 02:22:32;;;;;;;22.15;9.60;;;5.10;4.40;;;;;;10280101;28;84561;-52
2022/01/25 02:27:32;;;;;;;22.92;9.57;;;5.20;1.00;;;;;;10290677;28;85988;-52
2022/01/25 02:32:33;;;;;;;26.25;10.23;;;5.10;1.00;;;;;;10288610;28;87165;-56
2022/01/25 02:37:34;;;;;;;24.15;9.80;;;5.00;1.00;;;;;;10288449;28;84919;-54
2022/01/25 02:42:35;;;;;;;22.92;8.68;;;4.90;28.30;;;;;;10289719;28;84912;-52
2022/01/25 02:52:55;;;;;;;25.25;9.43;;;5.10;1.10;;;;;;10289976;28;84818;-54
2022/01/25 02:57:56;;;;;;;27.92;10.68;;;5.10;1.00;;;;;;10288433;28;84319;-55
2022/01/25 03:07:58;;;;;;;26.42;10.43;;;5.00;9.40;;;;;;10242599;28;85715;-43
2022/01/25 03:12:59;;;;;;;27.30;10.40;;;5.10;4.70;;;;;;10228264;28;84962;-46
2022/01/25 03:18:07;;;;;;;27.10;9.82;;;5.20;1.00;;;;;;10245681;28;84952;-46
2022/01/25 03:23:18;;;;;;;29.10;10.73;;;5.30;1.00;;;;;;10246302;28;84951;-43
2022/01/25 03:28:19;;;;;;;27.17;10.70;;;5.30;1.00;;;;;;10246484;28;84146;-45
2022/01/25 03:33:21;;;;;;;27.05;10.32;;;5.40;1.00;;;;;;10244293;28;87007;-43
2022/01/25 03:38:22;;;;;;;27.25;10.30;;;5.40;1.00;;;;;;10241849;28;84406;-44
2022/01/25 03:43:23;;;;;;;30.48;10.85;;;5.40;1.00;;;;;;10246788;28;84164;-47
2022/01/25 03:53:24;;;;;;;24.20;9.45;;;5.50;1.00;;;;;;10254397;28;84898;-43
2022/01/25 03:58:26;;;;;;;25.33;8.65;;;5.40;1.00;;;;;;10245082;28;85030;-43
2022/01/25 04:03:36;;;;;;;24.15;9.50;;;5.30;1.00;;;;;;10245944;28;84793;-45
2022/01/25 04:08:37;;;;;;;27.60;10.23;;;5.30;1.00;;;;;;10250212;28;84000;-44
2022/01/25 04:13:38;;;;;;;23.00;9.98;;;5.20;1.00;;;;;;10276262;28;86069;-43
2022/01/25 04:29:17;;;;;;;26.02;9.63;;;5.20;1.00;;;;;;10285905;28;84882;-43
2022/01/25 04:49:58;;;;;;;25.63;10.07;;;5.30;1.00;;;;;;10285617;28;84131;-44
2022/01/25 05:00:15;;;;;;;28.17;10.07;;;5.30;1.00;;;;;;10285601;28;84406;-46
2022/01/25 05:05:38;;;;;;;28.17;10.43;;;5.40;1.00;;;;;;10284113;28;84070;-48
2022/01/25 05:10:48;;;;;;;31.52;10.23;;;5.30;1.00;;;;;;10279645;28;84477;-47
2022/01/25 05:16:03;;;;;;;29.27;10.52;;;5.30;1.00;;;;;;10241750;28;84994;-45
2022/01/25 05:26:24;;;;;;;29.95;9.70;;;5.40;1.00;;;;;;10251551;28;85044;-45
2022/01/25 05:31:25;;;;;;;33.67;12.10;;;5.40;1.00;;;;;;10250940;28;85338;-46
2022/01/25 05:36:26;;;;;;;26.73;10.98;;;5.40;1.00;;;;;;10256873;28;84704;-48
2022/01/25 05:41:29;;;;;;;31.85;11.10;;;5.40;1.00;;;;;;10252221;28;84866;-45
2022/01/25 05:46:52;;;;;;;32.38;12.25;;;5.40;1.00;;;;;;10249160;28;84275;-45
2022/01/25 05:51:53;;;;;;;31.63;11.90;;;5.40;1.00;;;;;;10246337;28;85815;-45
2022/01/25 05:56:53;;;;;;;41.20;16.90;;;5.40;54.70;;;;;;10249122;28;84832;-44
2022/01/25 06:01:54;;;;;;;37.22;14.13;;;5.40;38.60;;;;;;10249661;28;84128;-46
2022/01/25 06:06:55;;;;;;;42.17;14.68;;;5.40;1.00;;;;;;10248066;28;84810;-44
2022/01/25 06:11:55;;;;;;;37.53;14.68;;;5.30;1.00;;;;;;10244060;28;85870;-47
2022/01/25 06:16:56;;;;;;;44.90;14.75;;;5.30;1.00;;;;;;10244756;28;84865;-46
2022/01/25 06:21:57;;;;;;;47.25;15.50;;;5.20;1.00;;;;;;10248517;28;84673;-46
2022/01/25 06:26:57;;;;;;;42.30;15.43;;;5.10;1.00;;;;;;10242658;28;84147;-46
2022/01/25 06:31:59;;;;;;;43.90;15.60;;;5.10;1.00;;;;;;10243447;28;85103;-46
2022/01/25 06:37:00;;;;;;;40.35;14.68;;;5.10;1.00;;;;;;10248249;28;84836;-46
2022/01/25 06:42:01;;;;;;;44.97;15.07;;;5.20;1.00;;;;;;10249234;28;84892;-45
2022/01/25 06:47:02;;;;;;;41.97;14.82;;;5.10;1.00;;;;;;10246547;28;84780;-47
2022/01/25 06:52:03;;;;;;;43.70;14.32;;;5.10;1.00;;;;;;10235877;28;86983;-53
2022/01/25 06:57:04;;;;;;;42.85;15.15;;;5.10;1.00;;;;;;10247622;28;87090;-57
2022/01/25 07:02:06;;;;;;;52.40;15.68;;;5.10;1.00;;;;;;10249878;28;84207;-58
2022/01/25 07:07:07;;;;;;;38.58;14.50;;;5.10;1.00;;;;;;10246366;28;85197;-54
2022/01/25 07:12:08;;;;;;;43.80;16.20;;;5.10;1.00;;;;;;10248422;28;84211;-54
2022/01/25 07:17:08;;;;;;;47.55;16.23;;;5.10;1.00;;;;;;10247960;28;84741;-54
2022/01/25 07:22:09;;;;;;;41.47;15.25;;;5.20;1.00;;;;;;10247372;28;84226;-54
2022/01/25 07:27:11;;;;;;;40.92;13.93;;;5.20;1.00;;;;;;10246810;28;85451;-51
2022/01/25 07:32:11;;;;;;;47.08;14.57;;;5.30;1.00;;;;;;10247582;28;84888;-51
2022/01/25 07:37:12;;;;;;;40.55;14.70;;;5.30;1.00;;;;;;10247631;28;85301;-53
2022/01/25 07:42:14;;;;;;;41.58;15.35;;;5.20;1.00;;;;;;10246974;28;84194;-53
2022/01/25 07:47:20;;;;;;;42.05;14.02;;;5.10;1.00;;;;;;10244561;28;86573;-54
2022/01/25 07:52:21;;;;;;;39.05;13.98;;;5.20;1.00;;;;;;10229741;28;85225;-56
2022/01/25 07:57:22;;;;;;;40.63;14.85;;;5.10;1.00;;;;;;10246142;28;84121;-54
2022/01/25 08:02:22;;;;;;;36.67;13.90;;;5.10;1.00;;;;;;10247357;28;84123;-51
2022/01/25 08:07:23;;;;;;;43.10;14.07;;;5.10;1.00;;;;;;10246332;28;84279;-55
2022/01/25 08:12:25;;;;;;;38.72;13.95;;;5.20;1.00;;;;;;10247020;28;84444;-55
2022/01/25 08:17:25;;;;;;;41.13;13.63;;;5.20;1.00;;;;;;10245626;28;84289;-55
2022/01/25 08:22:26;;;;;;;42.20;14.00;;;5.10;1.00;;;;;;10246753;28;84871;-58
2022/01/25 08:27:27;;;;;;;37.55;12.50;;;5.00;1.00;;;;;;10245084;28;84533;-56
2022/01/25 08:32:28;;;;;;;31.40;12.23;;;5.00;1.00;;;;;;10242182;28;84218;-54
2022/01/25 08:37:28;;;;;;;39.88;13.93;;;5.00;1.00;;;;;;10241350;28;84549;-51
2022/01/25 08:42:29;;;;;;;38.25;13.07;;;5.10;1.00;;;;;;10246149;28;84716;-44
2022/01/25 08:47:30;;;;;;;38.92;13.25;;;5.10;1.00;;;;;;10245138;28;84801;-49
2022/01/25 08:52:31;;;;;;;42.58;13.63;;;5.10;1.00;;;;;;10244191;28;84859;-49
2022/01/25 08:57:32;;;;;;;39.63;14.23;;;5.20;1.00;;;;;;10249493;28;84082;-49
2022/01/25 09:02:32;;;;;;;33.75;12.07;;;5.20;1.00;;;;;;10246609;28;84886;-51
2022/01/25 09:07:33;;;;;;;37.63;13.52;;;5.10;1.00;;;;;;10279657;23;84351;-55
2022/01/25 09:12:33;;;;;;;36.95;13.65;;;5.20;1.00;;;;;;10279801;28;85008;-60
2022/01/25 09:17:34;;;;;;;39.63;11.80;;;5.10;1.00;;;;;;10263149;28;86248;-57
2022/01/25 09:22:35;;;;;;;36.63;11.60;;;5.20;1.00;;;;;;10265338;28;86651;-55
2022/01/25 09:27:36;;;;;;;34.20;10.68;;;5.20;1.00;;;;;;10248795;28;86006;-58
2022/01/25 09:32:37;;;;;;;34.97;12.23;;;5.20;1.00;;;;;;10283090;28;84943;-60
2022/01/25 09:37:38;;;;;;;34.72;12.45;;;5.30;1.00;;;;;;10279437;28;87401;-57
2022/01/25 09:42:39;;;;;;;33.55;11.40;;;5.30;1.00;;;;;;10292151;28;83993;-60
2022/01/25 09:47:40;;;;;;;32.47;11.02;;;5.20;1.00;;;;;;10291834;28;85749;-55
2022/01/25 09:52:42;;;;;;;32.67;12.00;;;5.20;1.00;;;;;;10270790;28;84770;-59
2022/01/25 09:57:43;;;;;;;39.65;11.35;;;5.20;1.00;;;;;;10257162;28;84975;-56
2022/01/25 10:02:54;;;;;;;36.85;12.23;;;5.20;1.00;;;;;;10250728;28;84230;-58
2022/01/25 10:07:58;;;;;;;33.25;11.45;;;5.20;1.00;;;;;;10251834;28;86873;-54
2022/01/25 10:13:22;;;;;;;36.33;10.73;;;5.20;1.00;;;;;;10259602;28;86848;-52
2022/01/25 10:18:23;;;;;;;31.23;10.90;;;5.20;1.00;;;;;;10267679;28;84273;-57
2022/01/25 10:23:30;;;;;;;32.60;11.40;;;5.20;1.00;;;;;;10261509;28;84810;-50
2022/01/25 10:28:31;;;;;;;32.35;12.38;;;5.20;1.00;;;;;;10289481;28;87172;-52
2022/01/25 10:33:34;;;;;;;32.08;11.07;;;5.20;1.00;;;;;;10280323;28;84137;-58
2022/01/25 10:38:35;;;;;;;33.90;12.05;;;5.20;1.00;;;;;;10286506;28;87018;-52
2022/01/25 10:43:38;;;;;;;37.67;11.90;;;5.30;1.00;;;;;;10255573;28;84192;-41
2022/01/25 10:48:41;;;;;;;36.97;12.60;;;5.20;1.00;;;;;;10249728;28;84902;-62
2022/01/25 10:53:42;;;;;;;39.05;13.30;;;5.20;1.00;;;;;;10253028;28;84879;-54
2022/01/25 10:58:43;;;;;;;32.72;12.18;;;5.20;1.00;;;;;;10259685;28;84659;-56
2022/01/25 11:03:43;;;;;;;38.30;12.60;;;5.20;1.00;;;;;;10286664;28;84220;-58
2022/01/25 11:08:47;;;;;;;38.00;11.85;;;5.30;1.00;;;;;;10274565;28;86202;-58
2022/01/25 11:13:49;;;;;;;32.45;10.98;;;5.20;1.00;;;;;;10282532;28;84955;-59
2022/01/25 11:18:50;;;;;;;32.97;10.93;;;5.20;1.00;;;;;;10272198;28;84746;-57
2022/01/25 11:23:52;;;;;;;33.63;11.57;;;5.30;1.00;;;;;;10289456;28;85076;-54
2022/01/25 11:28:52;;;;;;;37.67;12.13;;;5.30;1.00;;;;;;10268554;28;85002;-56
2022/01/25 11:33:54;;;;;;;33.42;11.45;;;5.30;1.00;;;;;;10249779;28;84974;-53
2022/01/25 11:38:55;;;;;;;35.20;12.18;;;5.20;1.00;;;;;;10275523;28;84379;-50
2022/01/25 11:44:21;;;;;;;35.30;12.07;;;5.20;1.00;;;;;;10276684;28;84194;-53
2022/01/25 11:49:23;;;;;;;35.88;11.52;;;5.30;1.00;;;;;;10291513;28;84153;-57
2022/01/25 11:54:24;;;;;;;33.90;11.43;;;5.30;1.00;;;;;;10290325;28;84711;-55
2022/01/25 11:59:35;;;;;;;35.42;11.50;;;5.20;1.00;;;;;;10263254;28;84197;-55
2022/01/25 12:04:35;;;;;;;38.55;11.18;;;5.30;1.00;;;;;;10249932;28;86193;-56
2022/01/25 12:09:49;;;;;;;35.50;11.57;;;5.30;1.00;;;;;;10246965;28;84308;-53
2022/01/25 12:14:54;;;;;;;33.13;10.50;;;5.40;1.00;;;;;;10245157;28;85026;-53
2022/01/25 12:20:03;;;;;;;38.42;12.73;;;5.30;1.00;;;;;;10245727;28;86370;-57
2022/01/25 12:25:19;;;;;;;40.03;11.85;;;5.30;1.00;;;;;;10248323;28;84288;-58
2022/01/25 12:30:25;;;;;;;33.13;11.23;;;5.40;1.00;;;;;;10255513;28;87112;-62
2022/01/25 12:35:51;;;;;;;35.75;12.63;;;5.30;1.00;;;;;;10281913;28;84200;-57
2022/01/25 12:40:56;;;;;;;41.33;12.35;;;5.20;1.00;;;;;;10275737;28;84108;-59
2022/01/25 12:45:59;;;;;;;29.33;10.77;;;5.30;1.00;;;;;;10285304;28;84018;-54
2022/01/25 12:51:09;;;;;;;35.58;11.93;;;5.20;1.00;;;;;;10255562;28;85941;-49
2022/01/25 12:56:16;;;;;;;35.88;10.52;;;5.30;1.00;;;;;;10243081;28;84772;-53
2022/01/25 13:01:20;;;;;;;39.55;12.35;;;5.40;1.00;;;;;;10244446;28;85352;-50
2022/01/25 13:06:23;;;;;;;38.08;12.93;;;5.50;1.00;;;;;;10243359;28;84338;-51
2022/01/25 13:16:41;;;;;;;37.60;10.73;;;5.20;1.00;;;;;;10254922;28;87695;-48
2022/01/25 13:21:45;;;;;;;32.92;11.65;;;5.30;1.00;;;;;;10269411;28;85033;-53
2022/01/25 13:27:01;;;;;;;33.45;11.65;;;5.30;1.00;;;;;;10263048;28;84091;-54
2022/01/25 13:32:24;;;;;;;30.00;10.77;;;5.30;1.00;;;;;;10245035;28;84932;-56
2022/01/25 13:37:25;;;;;;;33.45;11.77;;;5.40;1.00;;;;;;10245712;28;84772;-57
2022/01/25 13:42:34;;;;;;;36.03;11.25;;;5.30;1.00;;;;;;10245437;28;84963;-57
2022/01/25 13:47:35;;;;;;;34.95;11.77;;;5.30;1.00;;;;;;10250331;28;84196;-57
2022/01/25 13:52:36;;;;;;;37.80;11.38;;;5.30;1.00;;;;;;10251007;28;84972;-54
2022/01/25 13:57:36;;;;;;;33.17;10.80;;;5.30;1.00;;;;;;10261520;28;84066;-55
2022/01/25 14:02:38;;;;;;;33.80;10.77;;;5.30;1.00;;;;;;10265394;28;85030;-60
2022/01/25 14:07:39;;;;;;;37.05;10.90;;;5.20;1.00;;;;;;10268135;28;85122;-59
2022/01/25 14:23:24;;;;;;;36.88;12.40;;;5.10;1.00;;;;;;10291486;28;84723;-50
2022/01/25 14:28:25;;;;;;;31.27;10.80;;;5.20;1.00;;;;;;10290141;28;84887;-48
2022/01/25 14:33:29;;;;;;;35.60;12.38;;;5.20;1.00;;;;;;10290485;28;84755;-54
2022/01/25 14:38:39;;;;;;;36.28;11.82;;;5.20;1.00;;;;;;10274696;28;85255;-52
2022/01/25 14:43:45;;;;;;;32.00;10.55;;;5.20;1.00;;;;;;10279796;28;87075;-53
2022/01/25 14:48:56;;;;;;;33.00;11.05;;;5.20;1.00;;;;;;10289934;28;84963;-54
2022/01/25 14:53:59;;;;;;;34.08;11.32;;;5.30;1.00;;;;;;10266345;28;84701;-51
2022/01/25 14:59:24;;;;;;;43.15;13.13;;;5.30;1.00;;;;;;10260428;28;84908;-50
2022/01/25 15:04:27;;;;;;;31.05;11.35;;;5.20;1.00;;;;;;10282506;22;85255;-45
2022/01/25 15:09:28;;;;;;;29.23;10.93;;;5.10;1.00;;;;;;10246332;28;84211;-47
2022/01/25 15:14:38;;;;;;;32.63;11.63;;;5.20;1.00;;;;;;10248194;28;84482;-46
2022/01/25 15:19:38;;;;;;;35.95;11.10;;;5.20;1.00;;;;;;10232947;28;84820;-45
2022/01/25 15:24:42;;;;;;;39.50;12.45;;;5.20;1.00;;;;;;10243605;28;84951;-50
2022/01/25 15:29:43;;;;;;;31.63;11.57;;;5.20;1.00;;;;;;10261005;28;85287;-48
2022/01/25 15:34:44;;;;;;;32.40;10.30;;;5.20;1.00;;;;;;10248056;28;84038;-47
2022/01/25 15:39:45;;;;;;;36.03;11.02;;;5.20;1.00;;;;;;10245272;28;84314;-46
2022/01/25 15:44:49;;;;;;;35.03;10.70;;;5.10;1.00;;;;;;10249160;28;85267;-46
2022/01/25 15:49:49;;;;;;;39.15;12.77;;;5.10;1.00;;;;;;10256826;28;84825;-58
2022/01/25 15:54:50;;;;;;;39.17;11.27;;;5.00;1.00;;;;;;10236309;28;84901;-57
2022/01/25 15:59:50;;;;;;;32.38;11.63;;;5.10;1.00;;;;;;10253400;28;84766;-58
2022/01/25 16:04:51;;;;;;;36.63;12.35;;;5.10;1.00;;;;;;10244449;28;84970;-58
2022/01/25 16:09:56;;;;;;;31.70;11.48;;;5.00;1.00;;;;;;10247493;28;84258;-53
2022/01/25 16:14:57;;;;;;;32.35;11.70;;;5.10;1.00;;;;;;10253264;28;85168;-52
2022/01/25 16:19:58;;;;;;;35.45;11.38;;;5.10;1.00;;;;;;10244956;28;84110;-54
2022/01/25 16:24:59;;;;;;;31.25;11.80;;;5.00;1.00;;;;;;10245273;28;84189;-55
2022/01/25 16:29:59;;;;;;;34.10;12.38;;;5.00;1.00;;;;;;10251817;28;84573;-55
2022/01/25 16:35:00;;;;;;;39.97;11.65;;;4.90;1.00;;;;;;10276658;28;84922;-56
2022/01/25 16:40:02;;;;;;;40.92;11.35;;;4.90;1.00;;;;;;10268029;28;85526;-59
2022/01/25 16:45:05;;;;;;;36.30;11.02;;;4.80;1.00;;;;;;10243451;28;84371;-54
2022/01/25 16:50:13;;;;;;;32.10;10.65;;;4.80;1.00;;;;;;10249315;28;84952;-59
2022/01/25 16:55:14;;;;;;;31.05;10.02;;;4.80;1.00;;;;;;10277217;28;84754;-61
2022/01/25 17:00:17;;;;;;;33.70;10.98;;;4.80;1.00;;;;;;10277994;28;84250;-59
2022/01/25 17:05:18;;;;;;;41.10;12.10;;;4.80;1.00;;;;;;10243025;28;84070;-57
2022/01/25 17:10:18;;;;;;;35.65;12.77;;;4.80;1.00;;;;;;10244184;28;84892;-55
2022/01/25 17:15:19;;;;;;;41.53;11.48;;;4.80;1.00;;;;;;10247294;28;84837;-55
2022/01/25 17:20:20;;;;;;;33.47;12.00;;;4.80;1.00;;;;;;10247890;28;84937;-47
2022/01/25 17:25:21;;;;;;;36.28;10.77;;;4.80;1.00;;;;;;10251102;28;84303;-46
2022/01/25 17:30:22;;;;;;;28.15;10.45;;;4.80;1.00;;;;;;10250898;28;85125;-47
2022/01/25 17:35:23;;;;;;;31.95;11.95;;;4.80;1.00;;;;;;10249353;28;84304;-47
2022/01/25 17:40:25;;;;;;;39.70;11.88;;;4.60;1.00;;;;;;10258990;28;84254;-46
2022/01/25 17:45:26;;;;;;;34.05;10.50;;;4.70;1.00;;;;;;10291455;28;84250;-48
2022/01/25 17:50:27;;;;;;;33.85;10.50;;;4.70;1.00;;;;;;10267766;28;85226;-46
2022/01/25 17:55:31;;;;;;;32.00;10.90;;;4.60;1.00;;;;;;10241241;28;85294;-45
2022/01/25 18:00:31;;;;;;;40.78;11.63;;;4.80;1.00;;;;;;10243569;28;84324;-48
2022/01/25 18:05:32;;;;;;;33.03;10.38;;;4.80;1.00;;;;;;10245827;28;87517;-47
2022/01/25 18:10:33;;;;;;;45.05;11.90;;;4.70;1.00;;;;;;10250349;28;85234;-46
2022/01/25 18:15:34;;;;;;;36.88;11.07;;;4.80;1.00;;;;;;10246908;28;87156;-45
2022/01/25 18:20:34;;;;;;;32.40;10.93;;;4.80;1.00;;;;;;10254339;28;85286;-45
2022/01/25 18:30:37;;;;;;;38.33;11.57;;;4.80;1.00;;;;;;10257770;28;84033;-48
2022/01/25 18:35:44;;;;;;;38.85;12.05;;;4.80;1.00;;;;;;10259123;28;85245;-46
2022/01/25 18:40:47;;;;;;;37.13;12.50;;;4.80;1.00;;;;;;10258212;28;85060;-47
2022/01/25 18:45:50;;;;;;;43.45;14.30;;;4.70;1.00;;;;;;10263843;28;85242;-46
2022/01/25 18:50:51;;;;;;;49.00;15.10;;;4.70;1.00;;;;;;10246936;28;85215;-45
2022/01/25 18:55:52;;;;;;;34.25;11.75;;;4.70;1.00;;;;;;10282450;28;86853;-47
2022/01/25 19:00:54;;;;;;;43.03;12.15;;;4.70;1.00;;;;;;10257324;28;86029;-45
2022/01/25 19:05:54;;;;;;;42.45;12.00;;;4.70;1.00;;;;;;10243274;28;84241;-45
2022/01/25 19:10:55;;;;;;;44.47;14.02;;;4.60;1.00;;;;;;10253792;28;84370;-46
2022/01/25 19:15:56;;;;;;;38.75;13.77;;;4.60;1.00;;;;;;10260415;28;84231;-46
2022/01/25 19:20:56;;;;;;;43.22;13.75;;;4.70;1.00;;;;;;10254460;28;85337;-45
2022/01/25 19:25:57;;;;;;;46.15;12.25;;;4.70;1.00;;;;;;10272350;28;84958;-46
2022/01/25 19:30:58;;;;;;;35.47;11.40;;;4.60;1.00;;;;;;10279692;28;85836;-47
2022/01/25 19:35:59;;;;;;;40.65;13.30;;;4.60;1.00;;;;;;10287685;28;84409;-46
2022/01/25 19:41:02;;;;;;;39.83;12.25;;;4.60;1.00;;;;;;10249763;28;84282;-49
2022/01/25 19:46:03;;;;;;;34.25;10.27;;;4.60;1.00;;;;;;10250280;28;84938;-46
2022/01/25 19:51:07;;;;;;;32.47;10.30;;;4.60;1.00;;;;;;10246225;28;85738;-46
2022/01/25 19:56:09;;;;;;;39.60;12.48;;;4.60;1.00;;;;;;10251436;28;85056;-45
2022/01/25 20:01:10;;;;;;;35.33;11.88;;;4.60;1.00;;;;;;10265580;28;84938;-45
2022/01/25 20:06:11;;;;;;;44.97;13.80;;;4.70;1.00;;;;;;10242161;28;86267;-46
2022/01/25 20:11:18;;;;;;;39.05;10.98;;;4.80;1.00;;;;;;10248619;28;84318;-47
2022/01/25 20:16:22;;;;;;;39.13;12.73;;;4.70;1.00;;;;;;10259328;28;84168;-46
2022/01/25 20:21:30;;;;;;;33.63;11.15;;;4.80;1.00;;;;;;10253766;28;84329;-46
2022/01/25 20:26:37;;;;;;;42.45;13.73;;;4.80;1.00;;;;;;10235642;28;84966;-44
2022/01/25 20:31:38;;;;;;;46.00;12.95;;;4.80;1.00;;;;;;10248559;28;84228;-43
2022/01/25 20:36:39;;;;;;;43.67;12.57;;;4.80;1.00;;;;;;10244568;28;84588;-43
2022/01/25 20:41:40;;;;;;;34.60;11.00;;;4.90;1.00;;;;;;10244786;28;86181;-44
2022/01/25 20:46:41;;;;;;;34.00;10.73;;;4.70;1.00;;;;;;10245353;28;86220;-45
2022/01/25 20:51:42;;;;;;;38.20;11.38;;;4.80;1.00;;;;;;10243654;28;84276;-44
2022/01/25 20:56:45;;;;;;;37.85;12.13;;;4.60;1.00;;;;;;10248534;28;86006;-43
2022/01/25 21:01:47;;;;;;;36.95;10.23;;;4.50;1.00;;;;;;10251184;28;84956;-43
2022/01/25 21:06:53;;;;;;;40.63;10.40;;;4.60;1.00;;;;;;10250421;28;84808;-45
2022/01/25 21:11:57;;;;;;;31.52;10.23;;;4.60;1.00;;;;;;10251570;28;85485;-47
2022/01/25 21:17:00;;;;;;;26.65;9.27;;;4.60;1.00;;;;;;10247490;28;85209;-44
2022/01/25 21:22:01;;;;;;;38.08;11.32;;;4.70;1.00;;;;;;10251842;28;85075;-43
2022/01/25 21:27:02;;;;;;;42.22;11.55;;;4.70;1.00;;;;;;10252287;28;84715;-44
2022/01/25 21:32:03;;;;;;;35.55;10.05;;;4.70;1.00;;;;;;10262947;28;84288;-44
2022/01/25 21:37:04;;;;;;;39.00;11.77;;;4.60;1.00;;;;;;10264003;28;86945;-45
2022/01/25 21:42:04;;;;;;;30.65;9.60;;;4.50;1.00;;;;;;10251291;28;84137;-44
2022/01/25 21:47:05;;;;;;;38.33;10.15;;;4.50;1.00;;;;;;10250672;28;84742;-45
2022/01/25 21:52:06;;;;;;;38.47;11.30;;;4.60;1.00;;;;;;10251263;28;84230;-43
2022/01/25 21:57:06;;;;;;;30.20;9.80;;;4.60;1.00;;;;;;10250998;28;84034;-43
2022/01/25 22:02:07;;;;;;;35.25;10.38;;;4.60;1.00;;;;;;10243391;28;84264;-43
2022/01/25 22:07:12;;;;;;;37.03;10.43;;;4.70;1.00;;;;;;10261222;28;85419;-44
2022/01/25 22:12:26;;;;;;;37.80;12.00;;;4.70;1.00;;;;;;10248782;28;85136;-43
2022/01/25 22:17:27;;;;;;;29.25;10.27;;;4.80;1.00;;;;;;10250571;28;84362;-46
2022/01/25 22:22:27;;;;;;;38.00;9.63;;;4.80;1.00;;;;;;10250953;28;84860;-45
2022/01/25 22:27:32;;;;;;;31.70;8.82;;;4.60;1.00;;;;;;10249893;28;84201;-44
2022/01/25 22:32:33;;;;;;;36.55;10.93;;;4.50;1.00;;;;;;10249719;28;84169;-48
2022/01/25 22:37:33;;;;;;;35.08;10.32;;;4.60;1.00;;;;;;10249717;28;84868;-43
2022/01/25 22:42:34;;;;;;;31.17;9.95;;;4.40;1.00;;;;;;10250331;28;84859;-45
2022/01/25 22:47:42;;;;;;;35.47;10.45;;;4.50;1.00;;;;;;10248716;28;84924;-43
2022/01/25 22:52:43;;;;;;;38.60;11.27;;;4.60;1.00;;;;;;10249522;28;84946;-44
2022/01/25 22:57:45;;;;;;;36.67;11.32;;;4.60;1.00;;;;;;10249259;28;84786;-42
2022/01/25 23:02:46;;;;;;;39.13;11.75;;;4.50;1.00;;;;;;10249400;28;84877;-43
2022/01/25 23:07:46;;;;;;;31.55;9.40;;;4.50;1.00;;;;;;10248479;28;84194;-43
2022/01/25 23:13:32;;;;;;;45.47;11.20;;;4.50;1.00;;;;;;10248240;28;84007;-44
2022/01/25 23:18:25;;;;;;;34.60;10.40;;;4.50;1.00;;;;;;10247797;28;84095;-49
2022/01/25 23:23:31;;;;;;;30.50;10.63;;;4.50;1.00;;;;;;10248781;28;85654;-45
2022/01/25 23:28:36;;;;;;;40.50;10.88;;;4.40;1.00;;;;;;10248182;28;84210;-45
2022/01/25 23:34:06;;;;;;;33.90;9.75;;;4.40;1.00;;;;;;10247609;28;84950;-46
2022/01/25 23:39:16;;;;;;;36.50;9.82;;;4.30;1.00;;;;;;10247985;28;84818;-44
2022/01/25 23:44:27;;;;;;;32.25;10.02;;;4.30;1.00;;;;;;10245790;28;85809;-43
2022/01/25 23:49:34;;;;;;;39.60;9.85;;;4.10;1.00;;;;;;10247597;28;84360;-43
